createdAt,value
2017-04-13T00:01:05.080Z,0
2017-04-13T00:02:14.304Z,0
2017-04-13T00:03:23.526Z,0
2017-04-13T00:04:32.751Z,0
2017-04-13T00:05:41.649Z,0
2017-04-13T00:06:50.549Z,0
2017-04-13T00:07:59.777Z,0
2017-04-13T00:09:09.016Z,0
2017-04-13T00:10:18.003Z,0
2017-04-13T00:11:27.226Z,0
2017-04-13T00:12:35.817Z,0
2017-04-13T00:13:44.721Z,0
2017-04-13T00:14:53.309Z,0
2017-04-13T00:16:01.896Z,0
2017-04-13T00:17:10.483Z,0
2017-04-13T00:18:19.071Z,0
2017-04-13T00:19:27.971Z,0
2017-04-13T00:20:36.601Z,0
2017-04-13T00:21:45.189Z,0
2017-04-13T00:22:54.416Z,0
2017-04-13T00:24:03.320Z,0
2017-04-13T00:25:13.226Z,0
2017-04-13T00:26:21.832Z,0
2017-04-13T00:27:31.367Z,0
2017-04-13T00:28:40.647Z,0
2017-04-13T00:29:49.569Z,0
2017-04-13T00:30:58.691Z,0
2017-04-13T00:32:07.274Z,0
2017-04-13T00:33:16.815Z,0
2017-04-13T00:34:26.035Z,0
2017-04-13T00:35:35.261Z,0
2017-04-13T00:36:43.856Z,0
2017-04-13T00:37:52.442Z,0
2017-04-13T00:39:01.345Z,0
2017-04-13T00:40:10.882Z,0
2017-04-13T00:41:20.117Z,0
2017-04-13T00:42:29.343Z,0
2017-04-13T00:43:38.571Z,0
2017-04-13T00:44:47.798Z,0
2017-04-13T00:45:57.665Z,0
2017-04-13T00:47:06.614Z,0
2017-04-13T00:48:15.851Z,0
2017-04-13T00:49:24.755Z,0
2017-04-13T00:50:33.683Z,0
2017-04-13T00:51:42.903Z,0
2017-04-13T00:52:51.741Z,0
2017-04-13T00:54:00.679Z,0
2017-04-13T00:55:09.301Z,0
2017-04-13T00:56:18.213Z,0
2017-04-13T00:57:27.121Z,0
2017-04-13T00:58:36.030Z,0
2017-04-13T00:59:45.796Z,0
2017-04-13T01:00:54.382Z,0
2017-04-13T01:02:02.975Z,0
2017-04-13T01:03:11.571Z,0
2017-04-13T01:04:20.481Z,0
2017-04-13T01:05:29.702Z,0
2017-04-13T01:06:38.608Z,0
2017-04-13T01:07:47.188Z,0
2017-04-13T01:08:56.089Z,0
2017-04-13T01:10:04.996Z,0
2017-04-13T01:11:14.226Z,0
2017-04-13T01:12:23.282Z,0
2017-04-13T01:13:32.194Z,0
2017-04-13T01:14:41.103Z,0
2017-04-13T01:15:50.016Z,0
2017-04-13T01:16:59.245Z,0
2017-04-13T01:18:08.516Z,0
2017-04-13T01:19:17.738Z,0
2017-04-13T01:20:26.332Z,0
2017-04-13T01:21:35.554Z,0
2017-04-13T01:22:44.809Z,0
2017-04-13T01:23:53.724Z,0
2017-04-13T01:25:03.263Z,0
2017-04-13T01:26:12.492Z,0
2017-04-13T01:27:21.719Z,0
2017-04-13T01:28:30.314Z,0
2017-04-13T01:29:39.851Z,0
2017-04-13T01:30:49.093Z,0
2017-04-13T01:31:57.995Z,0
2017-04-13T01:33:06.897Z,0
2017-04-13T01:34:16.134Z,0
2017-04-13T01:35:25.051Z,0
2017-04-13T01:36:34.603Z,0
2017-04-13T01:37:44.151Z,0
2017-04-13T01:38:52.743Z,0
2017-04-13T01:40:02.280Z,0
2017-04-13T01:41:11.226Z,0
2017-04-13T01:42:20.132Z,0
2017-04-13T01:43:28.716Z,0
2017-04-13T01:44:37.646Z,0
2017-04-13T01:45:46.543Z,0
2017-04-13T01:46:56.096Z,0
2017-04-13T01:48:05.002Z,0
2017-04-13T01:49:13.589Z,0
2017-04-13T01:50:22.820Z,0
2017-04-13T01:51:32.040Z,0
2017-04-13T01:52:41.272Z,0
2017-04-13T01:53:49.898Z,0
2017-04-13T01:54:58.807Z,0
2017-04-13T01:56:08.035Z,0
2017-04-13T01:57:17.580Z,0
2017-04-13T01:58:26.483Z,0
2017-04-13T01:59:35.390Z,0
2017-04-13T02:00:44.924Z,0
2017-04-13T02:01:53.509Z,0
2017-04-13T02:03:02.406Z,0
2017-04-13T02:04:11.950Z,0
2017-04-13T02:05:20.656Z,0
2017-04-13T02:06:29.563Z,0
2017-04-13T02:07:38.464Z,0
2017-04-13T02:08:47.376Z,0
2017-04-13T02:09:56.920Z,0
2017-04-13T02:11:06.137Z,0
2017-04-13T02:12:15.051Z,0
2017-04-13T02:13:23.639Z,0
2017-04-13T02:14:32.558Z,0
2017-04-13T02:15:41.476Z,0
2017-04-13T02:16:50.693Z,0
2017-04-13T02:18:00.232Z,0
2017-04-13T02:19:09.146Z,0
2017-04-13T02:20:17.745Z,0
2017-04-13T02:21:26.332Z,0
2017-04-13T02:22:35.561Z,0
2017-04-13T02:23:44.796Z,0
2017-04-13T02:24:53.388Z,0
2017-04-13T02:26:02.307Z,0
2017-04-13T02:27:11.532Z,0
2017-04-13T02:28:20.141Z,0
2017-04-13T02:29:29.368Z,0
2017-04-13T02:30:38.595Z,0
2017-04-13T02:31:48.139Z,0
2017-04-13T02:32:57.048Z,0
2017-04-13T02:34:05.948Z,0
2017-04-13T02:35:14.542Z,0
2017-04-13T02:36:23.144Z,0
2017-04-13T02:37:32.364Z,0
2017-04-13T02:38:41.585Z,0
2017-04-13T02:39:50.487Z,0
2017-04-13T02:40:59.760Z,0
2017-04-13T02:42:08.356Z,0
2017-04-13T02:43:17.581Z,0
2017-04-13T02:44:27.484Z,0
2017-04-13T02:45:36.705Z,0
2017-04-13T02:46:45.296Z,0
2017-04-13T02:47:54.525Z,0
2017-04-13T02:49:03.125Z,0
2017-04-13T02:50:12.366Z,0
2017-04-13T02:51:21.260Z,0
2017-04-13T02:52:30.477Z,0
2017-04-13T02:53:39.383Z,0
2017-04-13T02:54:48.609Z,0
2017-04-13T02:55:57.832Z,0
2017-04-13T02:57:07.058Z,0
2017-04-13T02:58:15.643Z,0
2017-04-13T02:59:24.227Z,0
2017-04-13T03:00:34.091Z,0
2017-04-13T03:01:42.986Z,0
2017-04-13T03:02:51.889Z,0
2017-04-13T03:04:01.108Z,0
2017-04-13T03:05:10.338Z,0
2017-04-13T03:06:19.565Z,0
2017-04-13T03:07:28.477Z,0
2017-04-13T03:08:37.385Z,0
2017-04-13T03:09:46.286Z,0
2017-04-13T03:10:55.505Z,0
2017-04-13T03:12:04.409Z,0
2017-04-13T03:13:13.308Z,0
2017-04-13T03:14:22.534Z,0
2017-04-13T03:15:31.452Z,0
2017-04-13T03:16:40.362Z,0
2017-04-13T03:17:49.275Z,0
2017-04-13T03:18:58.201Z,0
2017-04-13T03:20:07.126Z,0
2017-04-13T03:21:16.341Z,0
2017-04-13T03:22:25.879Z,0
2017-04-13T03:23:35.099Z,0
2017-04-13T03:24:44.005Z,0
2017-04-13T03:25:52.914Z,0
2017-04-13T03:27:01.821Z,0
2017-04-13T03:28:10.729Z,0
2017-04-13T03:29:19.948Z,0
2017-04-13T03:30:28.541Z,0
2017-04-13T03:31:37.130Z,0
2017-04-13T03:32:46.351Z,0
2017-04-13T03:33:55.570Z,0
2017-04-13T03:35:04.845Z,0
2017-04-13T03:36:13.748Z,0
2017-04-13T03:37:23.282Z,0
2017-04-13T03:38:32.827Z,0
2017-04-13T03:39:42.047Z,0
2017-04-13T03:40:50.965Z,0
2017-04-13T03:41:59.981Z,0
2017-04-13T03:43:08.952Z,0
2017-04-13T03:44:17.948Z,0
2017-04-13T03:45:26.537Z,0
2017-04-13T03:46:35.771Z,0
2017-04-13T03:47:44.682Z,0
2017-04-13T03:48:54.253Z,0
2017-04-13T03:50:03.496Z,0
2017-04-13T03:51:12.100Z,0
2017-04-13T03:52:20.699Z,0
2017-04-13T03:53:29.683Z,0
2017-04-13T03:54:38.656Z,0
2017-04-13T03:55:47.241Z,0
2017-04-13T03:56:56.464Z,0
2017-04-13T03:58:06.007Z,48
2017-04-13T03:59:15.556Z,68
2017-04-13T04:00:24.155Z,76
2017-04-13T04:01:33.064Z,80
2017-04-13T04:02:42.647Z,88
2017-04-13T04:03:52.189Z,88
2017-04-13T04:05:00.799Z,88
2017-04-13T04:06:09.701Z,88
2017-04-13T04:07:18.293Z,88
2017-04-13T04:08:27.826Z,88
2017-04-13T04:09:36.738Z,88
2017-04-13T04:10:46.286Z,88
2017-04-13T04:11:55.198Z,88
2017-04-13T04:13:04.105Z,92
2017-04-13T04:14:12.696Z,88
2017-04-13T04:15:21.288Z,92
2017-04-13T04:16:30.509Z,92
2017-04-13T04:17:39.416Z,92
2017-04-13T04:18:48.013Z,92
2017-04-13T04:19:57.278Z,92
2017-04-13T04:21:06.503Z,96
2017-04-13T04:22:16.046Z,100
2017-04-13T04:23:26.921Z,100
2017-04-13T04:24:36.506Z,100
2017-04-13T04:25:46.047Z,108
2017-04-13T04:26:55.260Z,112
2017-04-13T04:28:04.191Z,116
2017-04-13T04:29:13.726Z,124
2017-04-13T04:30:22.972Z,128
2017-04-13T04:31:31.573Z,132
2017-04-13T04:32:40.479Z,140
2017-04-13T04:33:49.700Z,152
2017-04-13T04:34:58.928Z,164
2017-04-13T04:36:07.837Z,184
2017-04-13T04:37:17.055Z,200
2017-04-13T04:38:26.281Z,220
2017-04-13T04:39:34.874Z,240
2017-04-13T04:40:43.462Z,260
2017-04-13T04:41:52.363Z,276
2017-04-13T04:43:01.583Z,300
2017-04-13T04:44:11.130Z,316
2017-04-13T04:45:20.351Z,340
2017-04-13T04:46:29.591Z,356
2017-04-13T04:47:38.506Z,380
2017-04-13T04:48:47.976Z,404
2017-04-13T04:49:56.874Z,440
2017-04-13T04:51:06.099Z,472
2017-04-13T04:52:15.644Z,512
2017-04-13T04:53:25.186Z,556
2017-04-13T04:54:34.730Z,592
2017-04-13T04:55:43.630Z,652
2017-04-13T04:56:52.536Z,696
2017-04-13T04:58:01.444Z,740
2017-04-13T04:59:11.298Z,776
2017-04-13T05:00:19.882Z,796
2017-04-13T05:01:29.425Z,828
2017-04-13T05:02:38.333Z,876
2017-04-13T05:03:47.231Z,928
2017-04-13T05:04:56.135Z,1016
2017-04-13T05:06:05.043Z,1080
2017-04-13T05:07:13.951Z,1100
2017-04-13T05:08:23.167Z,1092
2017-04-13T05:09:32.399Z,1096
2017-04-13T05:10:40.988Z,1100
2017-04-13T05:11:49.895Z,1132
2017-04-13T05:12:59.120Z,1164
2017-04-13T05:14:07.706Z,1176
2017-04-13T05:15:16.612Z,1216
2017-04-13T05:16:25.201Z,1280
2017-04-13T05:17:34.414Z,1364
2017-04-13T05:18:42.999Z,1476
2017-04-13T05:19:52.229Z,1600
2017-04-13T05:21:01.466Z,1696
2017-04-13T05:22:10.368Z,1720
2017-04-13T05:23:19.271Z,1684
2017-04-13T05:24:28.489Z,1692
2017-04-13T05:25:37.076Z,1788
2017-04-13T05:26:45.980Z,1872
2017-04-13T05:27:54.889Z,1900
2017-04-13T05:29:03.794Z,1924
2017-04-13T05:30:12.700Z,1968
2017-04-13T05:31:21.607Z,1900
2017-04-13T05:32:30.190Z,1816
2017-04-13T05:33:39.093Z,1812
2017-04-13T05:34:48.305Z,1820
2017-04-13T05:35:57.533Z,1944
2017-04-13T05:37:06.437Z,2240
2017-04-13T05:38:15.344Z,2696
2017-04-13T05:39:23.927Z,3052
2017-04-13T05:40:33.165Z,3236
2017-04-13T05:41:42.317Z,3248
2017-04-13T05:42:51.222Z,3028
2017-04-13T05:44:00.455Z,2876
2017-04-13T05:45:09.357Z,2740
2017-04-13T05:46:17.952Z,2620
2017-04-13T05:47:26.856Z,2584
2017-04-13T05:48:36.137Z,2568
2017-04-13T05:49:45.361Z,2520
2017-04-13T05:50:54.597Z,2616
2017-04-13T05:52:03.441Z,2676
2017-04-13T05:53:12.701Z,2632
2017-04-13T05:54:21.916Z,2672
2017-04-13T05:55:31.152Z,2752
2017-04-13T05:56:40.053Z,2724
2017-04-13T05:57:48.967Z,2560
2017-04-13T05:58:57.596Z,2500
2017-04-13T06:00:06.184Z,2404
2017-04-13T06:01:15.449Z,2360
2017-04-13T06:02:24.356Z,2392
2017-04-13T06:03:33.828Z,2500
2017-04-13T06:04:43.060Z,2136
2017-04-13T06:05:51.964Z,2360
2017-04-13T06:07:01.202Z,2604
2017-04-13T06:08:10.105Z,2548
2017-04-13T06:09:18.692Z,2752
2017-04-13T06:10:28.229Z,2728
2017-04-13T06:11:37.129Z,2928
2017-04-13T06:12:46.046Z,2864
2017-04-13T06:13:55.263Z,2932
2017-04-13T06:15:04.600Z,2996
2017-04-13T06:16:13.608Z,3224
2017-04-13T06:17:23.145Z,3364
2017-04-13T06:18:32.372Z,3172
2017-04-13T06:19:41.280Z,2900
2017-04-13T06:20:49.910Z,2900
2017-04-13T06:21:58.829Z,3016
2017-04-13T06:23:08.073Z,2932
2017-04-13T06:24:16.662Z,3140
2017-04-13T06:25:25.577Z,3276
2017-04-13T06:26:34.489Z,2764
2017-04-13T06:27:44.038Z,3000
2017-04-13T06:28:52.775Z,2964
2017-04-13T06:30:01.672Z,3132
2017-04-13T06:31:10.579Z,3112
2017-04-13T06:32:19.804Z,2676
2017-04-13T06:33:28.452Z,3304
2017-04-13T06:34:37.389Z,3332
2017-04-13T06:35:46.620Z,3512
2017-04-13T06:36:55.877Z,3500
2017-04-13T06:38:05.098Z,3372
2017-04-13T06:39:14.645Z,3584
2017-04-13T06:40:23.871Z,3780
2017-04-13T06:41:33.099Z,3856
2017-04-13T06:42:42.323Z,4000
2017-04-13T06:43:51.232Z,4412
2017-04-13T06:45:00.137Z,4524
2017-04-13T06:46:09.362Z,4228
2017-04-13T06:47:18.584Z,4416
2017-04-13T06:48:29.205Z,4320
2017-04-13T06:49:38.595Z,4388
2017-04-13T06:50:47.503Z,4356
2017-04-13T06:51:56.432Z,4252
2017-04-13T06:53:05.352Z,4336
2017-04-13T06:54:14.899Z,4528
2017-04-13T06:55:24.119Z,4464
2017-04-13T06:56:33.026Z,4860
2017-04-13T06:57:41.610Z,4800
2017-04-13T06:58:50.517Z,5012
2017-04-13T06:59:59.435Z,5800
2017-04-13T07:01:08.347Z,5948
2017-04-13T07:02:17.573Z,5812
2017-04-13T07:03:26.495Z,5664
2017-04-13T07:04:35.092Z,6008
2017-04-13T07:05:44.000Z,6204
2017-04-13T07:06:52.903Z,5792
2017-04-13T07:08:01.863Z,5716
2017-04-13T07:09:10.776Z,5452
2017-04-13T07:10:20.012Z,5424
2017-04-13T07:11:28.607Z,6804
2017-04-13T07:12:37.833Z,7228
2017-04-13T07:13:47.377Z,7548
2017-04-13T07:14:56.593Z,7652
2017-04-13T07:16:05.508Z,7132
2017-04-13T07:17:14.740Z,7336
2017-04-13T07:18:23.646Z,7928
2017-04-13T07:19:33.343Z,7516
2017-04-13T07:20:41.928Z,7292
2017-04-13T07:21:51.150Z,7136
2017-04-13T07:23:00.054Z,6820
2017-04-13T07:24:08.966Z,6728
2017-04-13T07:25:18.533Z,7616
2017-04-13T07:26:27.457Z,7504
2017-04-13T07:27:36.694Z,7004
2017-04-13T07:28:45.288Z,6948
2017-04-13T07:29:53.880Z,6512
2017-04-13T07:31:03.424Z,6652
2017-04-13T07:32:12.649Z,6716
2017-04-13T07:33:21.558Z,7316
2017-04-13T07:34:30.464Z,8016
2017-04-13T07:35:40.006Z,8224
2017-04-13T07:36:49.237Z,8112
2017-04-13T07:37:58.767Z,8136
2017-04-13T07:39:08.358Z,8464
2017-04-13T07:40:17.581Z,8424
2017-04-13T07:41:26.486Z,8792
2017-04-13T07:42:36.052Z,8840
2017-04-13T07:43:45.278Z,9584
2017-04-13T07:44:54.513Z,11240
2017-04-13T07:46:03.421Z,10800
2017-04-13T07:47:12.333Z,10172
2017-04-13T07:48:21.018Z,9816
2017-04-13T07:49:30.709Z,9452
2017-04-13T07:50:39.627Z,9576
2017-04-13T07:51:48.855Z,9544
2017-04-13T07:52:57.764Z,9256
2017-04-13T07:54:06.363Z,9116
2017-04-13T07:55:14.963Z,9332
2017-04-13T07:56:23.913Z,9392
2017-04-13T07:57:32.822Z,10332
2017-04-13T07:58:41.739Z,10356
2017-04-13T07:59:50.653Z,9872
2017-04-13T08:00:59.886Z,8932
2017-04-13T08:02:08.793Z,9712
2017-04-13T08:03:18.536Z,10556
2017-04-13T08:04:27.445Z,10176
2017-04-13T08:05:36.751Z,9956
2017-04-13T08:06:45.985Z,10388
2017-04-13T08:07:55.224Z,10656
2017-04-13T08:09:33.993Z,10868
2017-04-13T08:10:44.074Z,11368
2017-04-13T08:11:54.915Z,10984
2017-04-13T08:13:04.278Z,10664
2017-04-13T08:14:13.195Z,10148
2017-04-13T08:15:22.125Z,10148
2017-04-13T08:16:31.670Z,10552
2017-04-13T08:17:40.576Z,10628
2017-04-13T08:18:49.810Z,10220
2017-04-13T08:19:59.073Z,10292
2017-04-13T08:21:08.385Z,10644
2017-04-13T08:22:17.037Z,10816
2017-04-13T08:23:25.799Z,10136
2017-04-13T08:24:34.711Z,10528
2017-04-13T08:25:43.299Z,10308
2017-04-13T08:26:51.936Z,10508
2017-04-13T08:28:01.484Z,10424
2017-04-13T08:29:10.725Z,9656
2017-04-13T08:30:19.695Z,10412
2017-04-13T08:31:28.291Z,11340
2017-04-13T08:32:37.569Z,11364
2017-04-13T08:33:47.112Z,11200
2017-04-13T08:34:56.019Z,11228
2017-04-13T08:36:04.932Z,10636
2017-04-13T08:37:14.488Z,10224
2017-04-13T08:38:23.725Z,9848
2017-04-13T08:39:32.679Z,10332
2017-04-13T08:40:41.637Z,10692
2017-04-13T08:41:50.231Z,10088
2017-04-13T08:42:59.136Z,8896
2017-04-13T08:44:08.517Z,8548
2017-04-13T08:45:17.429Z,9736
2017-04-13T08:46:26.661Z,10120
2017-04-13T08:47:35.253Z,10428
2017-04-13T08:48:44.161Z,11232
2017-04-13T08:49:52.766Z,11736
2017-04-13T08:51:02.335Z,12064
2017-04-13T08:52:11.250Z,12384
2017-04-13T08:53:20.494Z,12296
2017-04-13T08:54:29.718Z,12180
2017-04-13T08:55:38.960Z,12144
2017-04-13T08:56:47.884Z,12820
2017-04-13T08:57:57.735Z,13172
2017-04-13T08:59:06.660Z,12724
2017-04-13T09:00:15.886Z,12608
2017-04-13T09:01:24.795Z,12832
2017-04-13T09:02:34.573Z,12916
2017-04-13T09:03:43.807Z,12408
2017-04-13T09:04:52.725Z,11864
2017-04-13T09:06:01.954Z,10840
2017-04-13T09:07:10.858Z,10392
2017-04-13T09:08:19.452Z,10832
2017-04-13T09:09:28.680Z,10864
2017-04-13T09:10:38.241Z,12020
2017-04-13T09:11:47.152Z,10364
2017-04-13T09:12:56.780Z,9464
2017-04-13T09:14:05.692Z,10040
2017-04-13T09:15:14.638Z,10100
2017-04-13T09:16:23.542Z,10960
2017-04-13T09:17:33.418Z,11024
2017-04-13T09:18:42.387Z,11932
2017-04-13T09:19:51.298Z,12664
2017-04-13T09:21:00.217Z,12684
2017-04-13T09:22:09.187Z,12636
2017-04-13T09:23:18.424Z,11960
2017-04-13T09:24:27.343Z,12728
2017-04-13T09:25:36.890Z,13708
2017-04-13T09:26:46.456Z,13668
2017-04-13T09:27:55.374Z,12412
2017-04-13T09:29:04.678Z,10896
2017-04-13T09:30:14.225Z,9036
2017-04-13T09:31:22.994Z,7364
2017-04-13T09:32:31.599Z,6124
2017-04-13T09:33:41.146Z,5424
2017-04-13T09:34:49.735Z,5508
2017-04-13T09:35:58.954Z,5988
2017-04-13T09:37:08.177Z,5936
2017-04-13T09:38:17.410Z,5896
2017-04-13T09:39:26.025Z,5876
2017-04-13T09:40:34.719Z,6084
2017-04-13T09:41:43.948Z,6324
2017-04-13T09:42:53.167Z,6448
2017-04-13T09:44:02.432Z,6428
2017-04-13T09:45:11.034Z,6356
2017-04-13T09:46:19.625Z,5776
2017-04-13T09:47:28.228Z,5788
2017-04-13T09:48:37.148Z,5984
2017-04-13T09:49:46.081Z,6308
2017-04-13T09:50:54.998Z,7136
2017-04-13T09:52:03.910Z,8228
2017-04-13T09:53:13.140Z,8420
2017-04-13T09:54:22.506Z,7820
2017-04-13T09:55:31.938Z,6720
2017-04-13T09:56:41.163Z,6200
2017-04-13T09:57:50.439Z,6184
2017-04-13T09:58:59.675Z,6208
2017-04-13T10:00:09.937Z,6396
2017-04-13T10:01:19.206Z,7776
2017-04-13T10:02:27.804Z,9584
2017-04-13T10:03:36.717Z,9896
2017-04-13T10:04:45.957Z,9588
2017-04-13T10:05:55.505Z,9652
2017-04-13T10:07:04.824Z,9384
2017-04-13T10:08:14.111Z,9652
2017-04-13T10:09:22.718Z,8996
2017-04-13T10:10:31.316Z,9888
2017-04-13T10:11:40.548Z,10300
2017-04-13T10:12:49.148Z,11364
2017-04-13T10:13:58.386Z,12176
2017-04-13T10:15:07.646Z,11580
2017-04-13T10:16:16.328Z,10512
2017-04-13T10:17:25.566Z,9172
2017-04-13T10:18:34.476Z,7256
2017-04-13T10:19:43.433Z,7292
2017-04-13T10:20:52.021Z,7984
2017-04-13T10:22:00.933Z,7824
2017-04-13T10:23:10.166Z,6844
2017-04-13T10:24:19.396Z,5704
2017-04-13T10:25:27.984Z,4900
2017-04-13T10:26:37.939Z,4124
2017-04-13T10:27:47.178Z,3232
2017-04-13T10:28:56.783Z,2608
2017-04-13T10:30:05.709Z,2464
2017-04-13T10:31:14.619Z,2320
2017-04-13T10:32:23.673Z,2452
2017-04-13T10:33:32.896Z,2992
2017-04-13T10:34:41.487Z,4252
2017-04-13T10:35:50.391Z,4480
2017-04-13T10:36:59.543Z,4772
2017-04-13T10:38:08.775Z,4960
2017-04-13T10:39:17.382Z,4308
2017-04-13T10:40:26.333Z,5264
2017-04-13T10:41:35.881Z,6948
2017-04-13T10:42:45.102Z,7912
2017-04-13T10:43:54.642Z,7708
2017-04-13T10:45:03.873Z,7612
2017-04-13T10:46:12.785Z,7216
2017-04-13T10:47:21.390Z,7912
2017-04-13T10:48:31.042Z,9412
2017-04-13T10:49:40.105Z,10404
2017-04-13T10:50:48.947Z,10980
2017-04-13T10:51:57.872Z,12416
2017-04-13T10:53:06.853Z,12324
2017-04-13T10:54:16.765Z,11620
2017-04-13T10:55:26.105Z,11416
2017-04-13T10:56:35.646Z,11908
2017-04-13T10:57:44.275Z,13272
2017-04-13T10:58:53.212Z,14424
2017-04-13T11:00:02.697Z,14548
2017-04-13T11:01:11.976Z,13628
2017-04-13T11:02:21.722Z,14372
2017-04-13T11:03:30.639Z,14588
2017-04-13T11:04:39.499Z,15632
2017-04-13T11:05:48.418Z,16928
2017-04-13T11:06:57.009Z,15012
2017-04-13T11:08:06.602Z,14712
2017-04-13T11:09:15.834Z,14348
2017-04-13T11:10:25.072Z,13824
2017-04-13T11:11:34.460Z,13308
2017-04-13T11:12:43.847Z,11360
2017-04-13T11:13:52.447Z,8744
2017-04-13T11:15:01.362Z,6168
2017-04-13T11:16:10.285Z,5364
2017-04-13T11:17:19.792Z,4588
2017-04-13T11:18:28.703Z,3412
2017-04-13T11:19:37.933Z,2800
2017-04-13T11:20:47.413Z,3172
2017-04-13T11:21:56.645Z,5140
2017-04-13T11:23:05.734Z,6844
2017-04-13T11:24:14.828Z,6260
2017-04-13T11:25:24.075Z,5128
2017-04-13T11:26:33.410Z,8372
2017-04-13T11:27:42.429Z,9848
2017-04-13T11:28:51.976Z,11524
2017-04-13T11:30:01.786Z,12380
2017-04-13T11:31:11.226Z,13160
2017-04-13T11:32:20.320Z,12596
2017-04-13T11:33:29.717Z,11272
2017-04-13T11:34:39.416Z,10668
2017-04-13T11:35:48.685Z,10040
2017-04-13T11:36:59.404Z,9820
2017-04-13T11:38:09.826Z,11496
2017-04-13T11:39:19.245Z,13392
2017-04-13T11:40:28.262Z,14692
2017-04-13T11:41:37.500Z,14724
2017-04-13T11:42:46.443Z,14344
2017-04-13T11:43:55.634Z,13392
2017-04-13T11:45:05.025Z,12288
2017-04-13T11:46:14.588Z,12040
2017-04-13T11:47:24.418Z,12356
2017-04-13T11:48:33.659Z,11632
2017-04-13T11:49:43.796Z,10512
2017-04-13T11:50:53.808Z,9220
2017-04-13T11:52:02.416Z,8660
2017-04-13T11:53:11.121Z,8384
2017-04-13T11:54:20.017Z,7780
2017-04-13T11:55:29.250Z,7584
2017-04-13T11:56:39.031Z,7852
2017-04-13T11:57:48.593Z,9308
2017-04-13T11:58:57.795Z,11004
2017-04-13T12:00:07.027Z,12592
2017-04-13T12:01:16.268Z,13332
2017-04-13T12:02:25.497Z,12808
2017-04-13T12:03:35.407Z,12836
2017-04-13T12:04:44.587Z,12612
2017-04-13T12:05:53.538Z,10988
2017-04-13T12:07:02.503Z,11700
2017-04-13T12:08:11.129Z,12188
2017-04-13T12:09:19.769Z,12568
2017-04-13T12:10:29.185Z,11664
2017-04-13T12:11:38.478Z,11808
2017-04-13T12:12:47.629Z,11876
2017-04-13T12:13:57.377Z,11268
2017-04-13T12:15:06.296Z,10716
2017-04-13T12:16:15.528Z,9836
2017-04-13T12:17:24.938Z,9324
2017-04-13T12:18:34.751Z,9404
2017-04-13T12:19:43.667Z,9676
2017-04-13T12:20:52.616Z,10716
2017-04-13T12:22:01.359Z,12680
2017-04-13T12:23:10.999Z,14236
2017-04-13T12:24:19.935Z,13228
2017-04-13T12:25:28.748Z,13324
2017-04-13T12:26:38.254Z,12608
2017-04-13T12:27:47.939Z,11748
2017-04-13T12:28:57.467Z,11512
2017-04-13T12:30:06.520Z,10440
2017-04-13T12:31:15.843Z,9664
2017-04-13T12:32:24.543Z,9416
2017-04-13T12:33:34.062Z,8064
2017-04-13T12:34:43.343Z,7560
2017-04-13T12:35:52.088Z,7556
2017-04-13T12:37:00.999Z,8080
2017-04-13T12:38:09.907Z,8624
2017-04-13T12:39:19.134Z,8544
2017-04-13T12:40:28.370Z,9328
2017-04-13T12:41:37.297Z,9796
2017-04-13T12:42:46.724Z,8964
2017-04-13T12:43:55.387Z,7888
2017-04-13T12:45:04.946Z,7468
2017-04-13T12:46:14.500Z,6880
2017-04-13T12:47:23.092Z,6020
2017-04-13T12:48:32.324Z,5136
2017-04-13T12:49:41.271Z,4640
2017-04-13T12:50:49.973Z,4648
2017-04-13T12:51:58.900Z,5140
2017-04-13T12:53:08.581Z,6200
2017-04-13T12:54:17.562Z,8076
2017-04-13T12:55:26.797Z,9548
2017-04-13T12:56:35.720Z,10556
2017-04-13T12:57:44.637Z,11168
2017-04-13T12:58:54.202Z,11660
2017-04-13T13:00:03.447Z,11664
2017-04-13T13:01:12.679Z,11620
2017-04-13T13:02:21.471Z,11564
2017-04-13T13:03:30.509Z,11744
2017-04-13T13:04:39.707Z,11520
2017-04-13T13:05:48.616Z,11228
2017-04-13T13:06:57.678Z,11216
2017-04-13T13:08:07.233Z,10496
2017-04-13T13:09:15.841Z,8676
2017-04-13T13:10:24.890Z,7456
2017-04-13T13:11:34.256Z,6828
2017-04-13T13:12:43.269Z,7120
2017-04-13T13:13:52.550Z,7452
2017-04-13T13:15:01.834Z,7224
2017-04-13T13:16:10.732Z,7044
2017-04-13T13:17:19.668Z,7540
2017-04-13T13:18:29.361Z,8140
2017-04-13T13:19:38.057Z,8508
2017-04-13T13:20:47.618Z,8908
2017-04-13T13:21:56.436Z,10028
2017-04-13T13:23:05.032Z,8976
2017-04-13T13:24:14.310Z,7404
2017-04-13T13:25:26.358Z,6436
2017-04-13T13:26:35.878Z,6928
2017-04-13T13:27:44.790Z,7140
2017-04-13T13:28:53.727Z,7220
2017-04-13T13:30:02.668Z,7716
2017-04-13T13:31:11.899Z,8348
2017-04-13T13:32:21.124Z,9088
2017-04-13T13:33:30.682Z,9116
2017-04-13T13:34:39.319Z,9200
2017-04-13T13:35:48.553Z,9656
2017-04-13T13:36:57.802Z,9748
2017-04-13T13:38:06.713Z,9124
2017-04-13T13:39:15.644Z,8692
2017-04-13T13:40:24.889Z,7692
2017-04-13T13:41:33.983Z,9092
2017-04-13T13:42:43.043Z,10368
2017-04-13T13:43:52.187Z,11892
2017-04-13T13:45:01.107Z,11220
2017-04-13T13:46:10.012Z,10132
2017-04-13T13:47:19.244Z,10040
2017-04-13T13:48:28.157Z,9328
2017-04-13T13:49:37.382Z,9608
2017-04-13T13:50:47.378Z,10332
2017-04-13T13:51:57.600Z,10516
2017-04-13T13:53:07.219Z,9956
2017-04-13T13:54:16.614Z,9520
2017-04-13T13:55:25.840Z,9544
2017-04-13T13:56:35.092Z,9784
2017-04-13T13:57:44.020Z,11472
2017-04-13T13:58:52.930Z,11448
2017-04-13T14:00:02.324Z,10960
2017-04-13T14:01:11.551Z,10780
2017-04-13T14:02:20.792Z,10568
2017-04-13T14:03:29.704Z,10184
2017-04-13T14:04:38.982Z,8480
2017-04-13T14:05:48.581Z,8116
2017-04-13T14:06:57.828Z,7592
2017-04-13T14:08:06.750Z,8072
2017-04-13T14:09:16.300Z,8200
2017-04-13T14:10:25.225Z,7372
2017-04-13T14:11:34.171Z,6852
2017-04-13T14:12:43.307Z,6532
2017-04-13T14:13:52.861Z,5648
2017-04-13T14:15:01.465Z,5696
2017-04-13T14:16:10.415Z,6740
2017-04-13T14:38:02.070Z,7588
2017-04-13T14:39:10.987Z,8064
2017-04-13T14:40:20.583Z,8572
2017-04-13T14:41:29.737Z,8832
2017-04-13T14:42:38.657Z,8880
2017-04-13T14:43:47.570Z,9168
2017-04-13T14:44:56.473Z,9460
2017-04-13T14:46:05.706Z,9692
2017-04-13T14:47:15.259Z,9052
2017-04-13T14:48:23.851Z,8700
2017-04-13T14:49:32.753Z,8448
2017-04-13T14:50:41.982Z,7676
2017-04-13T14:51:51.212Z,7536
2017-04-13T14:53:00.125Z,7328
2017-04-13T14:54:09.041Z,5876
2017-04-13T14:55:17.951Z,4856
2017-04-13T14:56:26.882Z,4692
2017-04-13T14:57:36.449Z,4748
2017-04-13T14:58:45.678Z,5348
2017-04-13T14:59:54.279Z,5196
2017-04-13T15:01:03.503Z,5152
2017-04-13T15:02:12.413Z,6048
2017-04-13T15:03:21.015Z,7916
2017-04-13T15:04:29.936Z,7060
2017-04-13T15:05:38.848Z,5208
2017-04-13T15:06:47.757Z,5044
2017-04-13T15:07:56.980Z,5776
2017-04-13T15:09:05.907Z,6212
2017-04-13T15:10:15.448Z,6576
2017-04-13T15:11:24.675Z,7548
2017-04-13T15:12:33.273Z,7624
2017-04-13T15:13:42.511Z,8468
2017-04-13T15:14:52.054Z,8736
2017-04-13T15:16:01.287Z,8216
2017-04-13T15:17:10.516Z,7420
2017-04-13T15:18:19.739Z,6896
2017-04-13T15:19:28.701Z,5708
2017-04-13T15:20:38.402Z,5192
2017-04-13T15:21:47.975Z,5544
2017-04-13T15:22:57.529Z,6508
2017-04-13T15:24:06.442Z,8472
2017-04-13T15:25:15.662Z,8072
2017-04-13T15:26:25.321Z,6976
2017-04-13T15:27:34.541Z,7384
2017-04-13T15:28:43.456Z,7532
2017-04-13T15:29:52.369Z,7832
2017-04-13T15:31:01.276Z,7696
2017-04-13T15:32:10.505Z,7504
2017-04-13T15:33:19.432Z,7296
2017-04-13T15:34:28.659Z,7124
2017-04-13T15:35:37.890Z,7020
2017-04-13T15:36:47.441Z,6948
2017-04-13T15:37:56.046Z,6940
2017-04-13T15:39:05.311Z,7076
2017-04-13T15:40:14.318Z,6876
2017-04-13T15:41:23.020Z,7092
2017-04-13T15:42:32.244Z,6884
2017-04-13T15:43:41.157Z,7404
2017-04-13T15:44:50.706Z,6752
2017-04-13T15:46:00.250Z,6768
2017-04-13T15:47:09.222Z,6632
2017-04-13T15:48:18.458Z,6576
2017-04-13T15:49:27.705Z,6816
2017-04-13T15:50:36.304Z,7500
2017-04-13T15:51:45.210Z,8248
2017-04-13T15:52:55.048Z,8392
